createdAt,value
2023-05-06T00:00:20.892Z,9.35
2023-05-06T00:02:48.310Z,9.77
2023-05-06T00:05:18.643Z,9.82
2023-05-06T00:07:48.936Z,10.55
2023-05-06T00:10:17.049Z,10.18
2023-05-06T00:12:44.104Z,9.13
2023-05-06T00:15:11.868Z,9.55
2023-05-06T00:17:39.302Z,9.77
2023-05-06T00:20:07.550Z,9.90
2023-05-06T00:22:34.645Z,9.63
2023-05-06T00:25:02.094Z,9.68
2023-05-06T00:27:29.092Z,10.05
2023-05-06T00:29:58.261Z,10.45
2023-05-06T00:32:25.361Z,9.70
2023-05-06T00:34:52.414Z,10.77
2023-05-06T00:37:19.493Z,9.93
2023-05-06T00:39:46.500Z,10.43
2023-05-06T00:42:13.625Z,11.13
2023-05-06T00:44:40.640Z,10.63
2023-05-06T00:47:08.447Z,10.43
2023-05-06T00:49:35.719Z,9.90
2023-05-06T00:52:03.779Z,10.13
2023-05-06T00:54:31.045Z,10.35
2023-05-06T00:56:58.197Z,10.68
2023-05-06T00:59:25.264Z,10.77
2023-05-06T01:01:54.033Z,10.63
2023-05-06T01:04:24.110Z,10.82
2023-05-06T01:07:00.055Z,9.98
2023-05-06T01:10:07.160Z,9.50
2023-05-06T01:13:16.843Z,9.55
2023-05-06T01:15:51.673Z,9.68
2023-05-06T01:18:23.067Z,9.55
2023-05-06T01:20:53.735Z,9.18
2023-05-06T01:23:20.901Z,9.50
2023-05-06T01:25:48.031Z,9.63
2023-05-06T01:28:15.102Z,9.85
2023-05-06T01:31:11.925Z,9.10
2023-05-06T01:33:59.325Z,9.50
2023-05-06T01:36:39.841Z,9.02
2023-05-06T01:39:25.110Z,9.27
2023-05-06T01:41:53.885Z,9.35
2023-05-06T01:44:23.802Z,8.60
2023-05-06T01:46:53.729Z,8.40
2023-05-06T01:49:27.530Z,9.27
2023-05-06T01:51:58.854Z,8.27
2023-05-06T01:54:27.220Z,8.55
2023-05-06T01:56:54.380Z,8.52
2023-05-06T01:59:21.413Z,9.07
2023-05-06T02:01:49.777Z,9.05
2023-05-06T02:04:17.195Z,9.13
2023-05-06T02:06:44.304Z,8.30
2023-05-06T02:09:11.282Z,8.68
2023-05-06T02:11:38.301Z,8.50
2023-05-06T02:14:05.250Z,8.80
2023-05-06T02:16:32.493Z,8.80
2023-05-06T02:18:59.594Z,8.27
2023-05-06T02:21:27.779Z,8.30
2023-05-06T02:23:54.854Z,8.85
2023-05-06T02:26:21.848Z,7.88
2023-05-06T02:28:48.835Z,8.82
2023-05-06T02:31:16.486Z,7.78
2023-05-06T02:33:45.933Z,8.48
2023-05-06T02:36:13.010Z,8.20
2023-05-06T02:38:40.047Z,8.48
2023-05-06T02:41:07.070Z,7.03
2023-05-06T02:43:34.124Z,8.25
2023-05-06T02:46:01.122Z,7.90
2023-05-06T02:48:28.308Z,7.47
2023-05-06T02:50:55.342Z,7.95
2023-05-06T02:53:22.300Z,7.75
2023-05-06T02:55:49.263Z,7.57
2023-05-06T02:58:16.201Z,6.97
2023-05-06T03:00:43.235Z,7.15
2023-05-06T03:03:10.248Z,7.60
2023-05-06T03:05:37.289Z,7.32
2023-05-06T03:08:04.604Z,7.68
2023-05-06T03:10:31.631Z,7.47
2023-05-06T03:12:58.647Z,7.55
2023-05-06T03:15:26.139Z,7.32
2023-05-06T03:17:53.283Z,7.20
2023-05-06T03:20:20.960Z,6.88
2023-05-06T03:22:48.093Z,7.43
2023-05-06T03:25:15.787Z,7.40
2023-05-06T03:27:42.767Z,6.93
2023-05-06T03:30:11.107Z,7.50
2023-05-06T03:32:38.642Z,6.45
2023-05-06T03:35:07.474Z,6.78
2023-05-06T03:37:34.470Z,7.30
2023-05-06T03:40:04.179Z,6.53
2023-05-06T03:42:32.077Z,7.25
2023-05-06T03:44:59.020Z,6.68
2023-05-06T03:47:27.261Z,6.40
2023-05-06T03:49:55.419Z,6.82
2023-05-06T03:52:23.887Z,6.57
2023-05-06T03:54:52.192Z,7.05
2023-05-06T03:57:20.411Z,6.25
2023-05-06T03:59:48.633Z,6.95
2023-05-06T04:02:18.247Z,6.55
2023-05-06T04:04:46.690Z,6.75
2023-05-06T04:07:15.166Z,6.03
2023-05-06T04:09:43.629Z,6.50
2023-05-06T04:12:13.656Z,6.72
2023-05-06T04:14:44.624Z,5.97
2023-05-06T04:17:14.138Z,6.40
2023-05-06T04:19:44.797Z,6.47
2023-05-06T04:22:23.611Z,5.95
2023-05-06T04:24:54.594Z,6.28
2023-05-06T04:27:21.522Z,6.60
2023-05-06T04:29:48.535Z,6.53
2023-05-06T04:32:18.092Z,6.28
2023-05-06T04:34:47.341Z,5.85
2023-05-06T04:37:14.550Z,5.90
2023-05-06T04:39:42.590Z,6.30
2023-05-06T04:42:09.576Z,6.85
2023-05-06T04:44:36.684Z,5.78
2023-05-06T04:47:03.836Z,6.68
2023-05-06T04:49:31.360Z,5.78
2023-05-06T04:51:58.403Z,5.72
2023-05-06T04:54:25.555Z,5.95
2023-05-06T04:56:52.596Z,5.63
2023-05-06T04:59:19.645Z,6.18
2023-05-06T05:01:46.739Z,6.05
2023-05-06T05:04:13.829Z,5.70
2023-05-06T05:06:40.997Z,5.78
2023-05-06T05:09:08.307Z,6.13
2023-05-06T05:11:38.468Z,5.70
2023-05-06T05:14:05.626Z,6.03
2023-05-06T05:16:32.819Z,5.15
2023-05-06T05:19:01.580Z,5.85
2023-05-06T05:21:30.585Z,5.68
2023-05-06T05:23:57.636Z,5.45
2023-05-06T05:26:24.735Z,5.50
2023-05-06T05:28:51.743Z,5.40
2023-05-06T05:31:18.800Z,5.47
2023-05-06T05:33:45.864Z,5.03
2023-05-06T05:36:15.288Z,5.40
2023-05-06T05:38:42.348Z,4.55
2023-05-06T05:41:09.382Z,5.32
2023-05-06T05:43:36.501Z,5.68
2023-05-06T05:46:04.135Z,5.10
2023-05-06T05:48:32.823Z,4.93
2023-05-06T05:51:02.122Z,5.45
2023-05-06T05:53:29.256Z,4.95
2023-05-06T05:55:56.313Z,4.78
2023-05-06T05:58:23.322Z,4.80
2023-05-06T06:00:50.339Z,4.78
2023-05-06T06:03:18.718Z,4.65
2023-05-06T06:05:46.297Z,4.65
2023-05-06T06:08:13.617Z,4.47
2023-05-06T06:10:41.958Z,4.57
2023-05-06T06:13:09.075Z,4.20
2023-05-06T06:15:36.257Z,4.47
2023-05-06T06:18:03.373Z,4.75
2023-05-06T06:20:30.566Z,4.35
2023-05-06T06:22:57.597Z,4.75
2023-05-06T06:25:24.697Z,4.60
2023-05-06T06:27:51.713Z,4.40
2023-05-06T06:30:18.741Z,4.53
2023-05-06T06:32:54.106Z,4.45
2023-05-06T06:35:21.188Z,4.28
2023-05-06T06:37:48.189Z,4.15
2023-05-06T06:40:15.927Z,4.40
2023-05-06T06:42:42.969Z,4.20
2023-05-06T06:45:10.876Z,4.32
2023-05-06T06:47:38.105Z,4.10
2023-05-06T06:50:05.931Z,3.97
2023-05-06T06:52:32.930Z,3.67
2023-05-06T06:55:00.395Z,3.67
2023-05-06T06:57:27.622Z,3.70
2023-05-06T06:59:55.670Z,3.90
2023-05-06T07:02:23.074Z,3.03
2023-05-06T07:04:50.176Z,3.45
2023-05-06T07:07:17.256Z,3.45
2023-05-06T07:09:44.565Z,3.35
2023-05-06T07:12:12.155Z,3.30
2023-05-06T07:14:39.296Z,3.08
2023-05-06T07:17:06.436Z,3.22
2023-05-06T07:19:33.520Z,3.20
2023-05-06T07:22:00.983Z,3.05
2023-05-06T07:24:28.008Z,3.13
2023-05-06T07:26:55.077Z,3.53
2023-05-06T07:29:22.093Z,3.33
2023-05-06T07:31:49.157Z,2.92
2023-05-06T07:34:16.165Z,3.22
2023-05-06T07:36:44.729Z,3.00
2023-05-06T07:39:13.440Z,2.83
2023-05-06T07:41:40.617Z,3.10
2023-05-06T07:44:07.620Z,2.78
2023-05-06T07:46:35.097Z,3.40
2023-05-06T07:49:02.216Z,3.15
2023-05-06T07:51:29.555Z,2.90
2023-05-06T07:53:56.535Z,2.80
2023-05-06T07:56:23.485Z,3.05
2023-05-06T07:58:50.877Z,2.40
2023-05-06T08:01:17.934Z,2.90
2023-05-06T08:03:45.193Z,2.72
2023-05-06T08:06:12.326Z,3.17
2023-05-06T08:08:39.503Z,2.75
2023-05-06T08:11:06.514Z,2.60
2023-05-06T08:13:33.616Z,2.60
2023-05-06T08:16:04.587Z,2.50
2023-05-06T08:18:31.644Z,2.63
2023-05-06T08:20:58.686Z,2.35
2023-05-06T08:23:25.761Z,2.30
2023-05-06T08:25:52.979Z,2.47
2023-05-06T08:28:20.237Z,2.33
2023-05-06T08:30:48.589Z,2.33
2023-05-06T08:33:15.744Z,2.33
2023-05-06T08:35:42.775Z,2.08
2023-05-06T08:38:09.760Z,2.30
2023-05-06T08:40:44.225Z,2.28
2023-05-06T08:43:14.924Z,1.77
2023-05-06T08:45:42.758Z,2.00
2023-05-06T08:48:09.926Z,2.17
2023-05-06T08:50:43.048Z,1.85
2023-05-06T08:53:13.507Z,2.00
2023-05-06T08:55:44.281Z,1.67
2023-05-06T08:58:16.944Z,1.40
2023-05-06T09:00:44.448Z,1.40
2023-05-06T09:03:11.620Z,1.40
2023-05-06T09:05:38.870Z,1.90
2023-05-06T09:08:06.019Z,1.85
2023-05-06T09:10:42.683Z,2.00
2023-05-06T09:13:14.108Z,1.48
2023-05-06T09:15:49.353Z,1.58
2023-05-06T09:18:16.949Z,1.95
2023-05-06T09:20:49.640Z,1.60
2023-05-06T09:23:18.330Z,1.60
2023-05-06T09:25:47.308Z,2.03
2023-05-06T09:28:15.295Z,1.33
2023-05-06T09:30:47.669Z,1.23
2023-05-06T09:33:14.985Z,1.40
2023-05-06T09:35:43.699Z,1.15
2023-05-06T09:38:11.150Z,1.00
2023-05-06T09:40:39.483Z,1.10
2023-05-06T09:43:06.783Z,1.20
2023-05-06T09:45:34.044Z,1.13
2023-05-06T09:48:01.324Z,0.90
2023-05-06T09:50:29.163Z,1.10
2023-05-06T09:52:56.617Z,1.13
2023-05-06T09:55:27.114Z,1.10
2023-05-06T09:57:56.058Z,1.48
2023-05-06T10:00:28.361Z,1.00
2023-05-06T10:02:56.035Z,1.30
2023-05-06T10:05:25.385Z,1.10
2023-05-06T10:07:55.072Z,1.20
2023-05-06T10:10:25.579Z,28.08
2023-05-06T10:12:53.784Z,5.35
2023-05-06T10:15:21.057Z,2.38
2023-05-06T10:17:50.430Z,1.90
2023-05-06T10:20:19.310Z,1.27
2023-05-06T10:23:25.554Z,1.13
2023-05-06T10:25:57.952Z,1.00
2023-05-06T10:28:27.471Z,1.02
2023-05-06T10:30:59.897Z,1.17
2023-05-06T10:33:28.589Z,1.15
2023-05-06T10:36:21.331Z,0.90
2023-05-06T10:39:00.137Z,1.10
2023-05-06T10:41:28.900Z,0.80
2023-05-06T10:43:57.535Z,0.88
2023-05-06T10:46:29.505Z,1.00
2023-05-06T10:49:06.339Z,0.98
2023-05-06T10:51:37.960Z,1.10
2023-05-06T10:54:19.965Z,1.70
2023-05-06T10:56:49.919Z,1.00
2023-05-06T10:59:24.427Z,1.20
2023-05-06T11:02:12.363Z,1.45
2023-05-06T11:04:40.267Z,1.00
2023-05-06T11:07:23.370Z,0.95
2023-05-06T11:10:08.349Z,1.00
2023-05-06T11:12:50.128Z,0.80
2023-05-06T11:15:40.441Z,0.98
2023-05-06T11:18:29.532Z,1.08
2023-05-06T11:21:02.743Z,1.30
2023-05-06T11:23:42.154Z,0.95
2023-05-06T11:26:14.185Z,0.90
2023-05-06T11:28:44.950Z,0.85
2023-05-06T11:31:13.754Z,0.80
2023-05-06T11:33:55.107Z,0.80
2023-05-06T11:36:22.126Z,0.60
2023-05-06T11:38:53.289Z,0.70
2023-05-06T11:41:23.493Z,1.05
2023-05-06T11:43:53.364Z,18.25
2023-05-06T11:46:23.145Z,13.13
2023-05-06T11:48:50.906Z,53.63
2023-05-06T11:51:25.111Z,6.43
2023-05-06T11:54:04.875Z,5.55
2023-05-06T11:56:41.795Z,1.65
2023-05-06T11:59:08.802Z,1.42
2023-05-06T12:01:35.784Z,1.35
2023-05-06T12:04:03.002Z,0.93
2023-05-06T12:06:35.881Z,0.80
2023-05-06T12:09:09.546Z,1.52
2023-05-06T12:11:37.464Z,0.88
2023-05-06T12:14:07.966Z,0.65
2023-05-06T12:16:37.100Z,0.80
2023-05-06T12:19:05.856Z,0.50
2023-05-06T12:21:37.253Z,0.52
2023-05-06T12:24:04.773Z,0.75
2023-05-06T12:26:47.661Z,0.85
2023-05-06T12:29:18.436Z,0.80
2023-05-06T12:31:50.043Z,0.80
2023-05-06T12:34:18.594Z,0.60
2023-05-06T12:36:47.349Z,0.70
2023-05-06T12:39:14.792Z,1.30
2023-05-06T12:41:46.551Z,0.98
2023-05-06T12:44:34.511Z,0.90
2023-05-06T12:47:09.964Z,0.98
2023-05-06T12:49:53.769Z,0.80
2023-05-06T12:52:23.426Z,0.80
2023-05-06T12:54:52.821Z,1.00
2023-05-06T12:57:20.503Z,0.70
2023-05-06T12:59:48.678Z,0.70
2023-05-06T13:02:16.202Z,0.70
2023-05-06T13:04:44.444Z,0.70
2023-05-06T13:07:12.586Z,0.55
2023-05-06T13:09:39.595Z,0.70
2023-05-06T13:12:07.352Z,0.88
2023-05-06T13:14:35.255Z,0.70
2023-05-06T13:17:06.690Z,0.70
2023-05-06T13:19:34.206Z,0.70
2023-05-06T13:22:02.096Z,0.73
2023-05-06T13:24:29.870Z,0.75
2023-05-06T13:26:57.458Z,0.70
2023-05-06T13:29:24.871Z,0.70
2023-05-06T13:31:52.434Z,0.77
2023-05-06T13:34:19.647Z,0.70
2023-05-06T13:36:49.256Z,0.60
2023-05-06T13:39:16.868Z,0.90
2023-05-06T13:41:47.700Z,0.70
2023-05-06T13:44:14.738Z,0.90
2023-05-06T13:46:43.605Z,0.80
2023-05-06T13:49:14.433Z,0.50
2023-05-06T13:51:41.436Z,0.60
2023-05-06T13:54:08.421Z,0.60
2023-05-06T13:56:35.463Z,0.75
2023-05-06T13:59:02.512Z,0.73
2023-05-06T14:01:29.560Z,0.70
2023-05-06T14:03:56.617Z,0.73
2023-05-06T14:06:23.605Z,0.63
2023-05-06T14:08:50.736Z,0.75
2023-05-06T14:11:17.762Z,0.80
2023-05-06T14:13:44.920Z,0.80
2023-05-06T14:16:12.073Z,0.80
2023-05-06T14:18:39.115Z,0.63
2023-05-06T14:21:06.208Z,0.68
2023-05-06T14:23:33.324Z,0.95
2023-05-06T14:26:00.776Z,0.65
2023-05-06T14:28:27.741Z,0.70
2023-05-06T14:30:55.294Z,0.95
2023-05-06T14:33:23.514Z,0.80
2023-05-06T14:35:52.768Z,0.88
2023-05-06T14:38:20.115Z,0.70
2023-05-06T14:40:47.238Z,0.60
2023-05-06T14:43:14.271Z,0.90
2023-05-06T14:45:41.511Z,0.60
2023-05-06T14:48:08.773Z,0.70
2023-05-06T14:50:35.841Z,0.55
2023-05-06T14:53:03.909Z,0.50
2023-05-06T14:55:31.267Z,0.80
2023-05-06T14:57:58.442Z,0.65
2023-05-06T15:00:25.655Z,0.77
2023-05-06T15:02:52.745Z,0.90
2023-05-06T15:05:20.098Z,1.23
2023-05-06T15:07:47.107Z,0.63
2023-05-06T15:10:14.244Z,0.70
2023-05-06T15:12:41.281Z,0.73
2023-05-06T15:15:09.312Z,0.80
2023-05-06T15:17:36.469Z,0.95
2023-05-06T15:20:04.524Z,1.00
2023-05-06T15:22:31.501Z,1.02
2023-05-06T15:24:58.531Z,0.90
2023-05-06T15:27:25.717Z,1.00
2023-05-06T15:29:52.737Z,0.90
2023-05-06T15:32:19.763Z,0.90
2023-05-06T15:34:46.877Z,1.15
2023-05-06T15:37:15.920Z,1.15
2023-05-06T15:39:43.255Z,1.10
2023-05-06T15:42:11.234Z,1.05
2023-05-06T15:44:38.441Z,1.23
2023-05-06T15:47:08.427Z,1.13
2023-05-06T15:49:51.605Z,1.02
2023-05-06T15:52:19.735Z,1.42
2023-05-06T15:54:49.726Z,1.08
2023-05-06T15:57:17.690Z,1.25
2023-05-06T15:59:44.776Z,1.30
2023-05-06T16:04:41.830Z,1.83
2023-05-06T16:07:09.012Z,1.90
2023-05-06T16:09:36.223Z,1.48
2023-05-06T16:12:04.094Z,1.85
2023-05-06T16:14:31.331Z,1.95
2023-05-06T16:16:58.571Z,1.50
2023-05-06T16:19:26.150Z,2.15
2023-05-06T16:21:53.462Z,2.17
2023-05-06T16:24:20.534Z,1.80
2023-05-06T16:26:47.509Z,1.80
2023-05-06T16:29:18.958Z,1.67
2023-05-06T16:31:46.830Z,1.60
2023-05-06T16:34:13.873Z,1.38
2023-05-06T16:36:41.499Z,1.45
2023-05-06T16:39:08.906Z,1.40
2023-05-06T16:41:35.987Z,1.40
2023-05-06T16:44:03.454Z,1.13
2023-05-06T16:46:30.630Z,1.70
2023-05-06T16:48:57.678Z,1.85
2023-05-06T16:51:24.939Z,1.73
2023-05-06T16:53:52.126Z,1.42
2023-05-06T16:56:19.210Z,1.65
2023-05-06T16:58:46.392Z,1.58
2023-05-06T17:01:13.526Z,1.90
2023-05-06T17:03:40.952Z,1.58
2023-05-06T17:06:08.310Z,2.20
2023-05-06T17:08:36.722Z,1.92
2023-05-06T17:11:07.410Z,2.10
2023-05-06T17:13:34.937Z,1.95
2023-05-06T17:16:02.167Z,2.13
2023-05-06T17:18:29.212Z,2.00
2023-05-06T17:20:57.388Z,2.22
2023-05-06T17:23:25.081Z,2.10
2023-05-06T17:25:52.479Z,2.17
2023-05-06T17:28:19.577Z,2.30
2023-05-06T17:30:46.898Z,2.05
2023-05-06T17:33:13.987Z,2.60
2023-05-06T17:35:41.132Z,2.75
2023-05-06T17:38:11.055Z,2.15
2023-05-06T17:40:38.167Z,2.63
2023-05-06T17:43:05.181Z,2.17
2023-05-06T17:45:32.113Z,2.00
2023-05-06T17:47:59.278Z,2.50
2023-05-06T17:50:26.333Z,2.15
2023-05-06T17:52:54.687Z,2.63
2023-05-06T17:55:22.398Z,2.88
2023-05-06T17:57:50.297Z,2.58
2023-05-06T18:00:18.518Z,2.75
2023-05-06T18:02:45.724Z,2.72
2023-05-06T18:05:13.765Z,3.28
2023-05-06T18:07:41.078Z,3.35
2023-05-06T18:10:08.966Z,2.92
2023-05-06T18:12:36.700Z,3.17
2023-05-06T18:15:04.780Z,3.42
2023-05-06T18:17:31.927Z,3.30
2023-05-06T18:19:59.098Z,3.30
2023-05-06T18:22:26.217Z,3.50
2023-05-06T18:24:55.246Z,3.60
2023-05-06T18:27:22.921Z,3.33
2023-05-06T18:29:49.970Z,3.40
2023-05-06T18:32:18.096Z,3.30
2023-05-06T18:34:45.395Z,3.60
2023-05-06T18:37:12.509Z,3.63
2023-05-06T18:39:43.086Z,3.10
2023-05-06T18:42:10.240Z,3.95
2023-05-06T18:44:37.725Z,3.47
2023-05-06T18:47:05.130Z,3.65
2023-05-06T18:49:32.230Z,4.13
2023-05-06T18:51:59.430Z,3.75
2023-05-06T18:54:26.449Z,3.45
2023-05-06T18:56:54.718Z,3.35
2023-05-06T18:59:21.965Z,3.80
2023-05-06T19:01:49.013Z,3.70
2023-05-06T19:04:16.451Z,3.55
2023-05-06T19:06:43.597Z,3.47
2023-05-06T19:09:11.332Z,3.80
2023-05-06T19:11:38.710Z,3.88
2023-05-06T19:14:05.780Z,3.70
2023-05-06T19:16:32.983Z,3.75
2023-05-06T19:19:02.600Z,3.85
2023-05-06T19:21:29.710Z,3.88
2023-05-06T19:23:59.795Z,3.42
2023-05-06T19:26:28.065Z,3.40
2023-05-06T19:28:55.241Z,3.95
2023-05-06T19:31:22.448Z,4.35
2023-05-06T19:33:49.578Z,3.83
2023-05-06T19:36:16.811Z,3.60
2023-05-06T19:38:43.892Z,3.78
2023-05-06T19:41:11.102Z,3.33
2023-05-06T19:43:44.823Z,3.47
2023-05-06T19:46:12.705Z,4.05
2023-05-06T19:48:39.814Z,3.60
2023-05-06T19:51:07.152Z,3.80
2023-05-06T19:53:35.777Z,4.32
2023-05-06T19:56:14.108Z,4.22
2023-05-06T19:58:41.228Z,3.58
2023-05-06T20:01:09.133Z,3.17
2023-05-06T20:03:36.513Z,3.90
2023-05-06T20:06:04.233Z,3.45
2023-05-06T20:08:31.329Z,3.65
2023-05-06T20:10:58.410Z,3.47
2023-05-06T20:13:25.918Z,3.65
2023-05-06T20:15:54.880Z,4.18
2023-05-06T20:18:22.090Z,3.63
2023-05-06T20:20:49.317Z,3.97
2023-05-06T20:23:16.378Z,3.55
2023-05-06T20:25:43.524Z,3.88
2023-05-06T20:28:10.679Z,4.05
2023-05-06T20:30:38.547Z,4.13
2023-05-06T20:33:06.044Z,4.28
2023-05-06T20:35:38.170Z,3.83
2023-05-06T20:38:06.561Z,4.55
2023-05-06T20:40:35.784Z,4.85
2023-05-06T20:43:03.985Z,4.25
2023-05-06T20:45:34.102Z,4.30
2023-05-06T20:48:01.332Z,4.20
2023-05-06T20:50:29.967Z,4.85
2023-05-06T20:52:57.165Z,4.85
2023-05-06T20:55:25.737Z,4.75
2023-05-06T20:57:52.950Z,4.13
2023-05-06T21:00:20.661Z,4.57
2023-05-06T21:02:47.868Z,4.13
2023-05-06T21:05:15.065Z,4.43
2023-05-06T21:07:42.313Z,4.18
2023-05-06T21:10:11.398Z,4.53
2023-05-06T21:12:39.113Z,4.35
2023-05-06T21:15:07.012Z,4.63
2023-05-06T21:17:34.190Z,4.80
2023-05-06T21:20:02.378Z,5.18
2023-05-06T21:22:30.646Z,5.28
2023-05-06T21:24:57.714Z,5.13
2023-05-06T21:27:24.829Z,5.10
2023-05-06T21:29:51.889Z,5.05
2023-05-06T21:32:19.070Z,5.22
2023-05-06T21:34:46.163Z,4.93
2023-05-06T21:37:13.112Z,5.18
2023-05-06T21:39:40.179Z,5.30
2023-05-06T21:42:07.146Z,5.50
2023-05-06T21:44:34.174Z,5.05
2023-05-06T21:47:01.201Z,5.18
2023-05-06T21:49:28.206Z,5.75
2023-05-06T21:51:55.325Z,5.15
2023-05-06T21:54:24.149Z,4.60
2023-05-06T21:56:51.174Z,5.80
2023-05-06T21:59:19.682Z,5.50
2023-05-06T22:01:46.932Z,4.97
2023-05-06T22:04:16.765Z,5.38
2023-05-06T22:06:44.121Z,5.57
2023-05-06T22:09:11.296Z,5.20
2023-05-06T22:11:38.894Z,5.57
2023-05-06T22:14:06.882Z,5.22
2023-05-06T22:16:35.579Z,6.13
2023-05-06T22:19:03.971Z,5.95
2023-05-06T22:21:32.675Z,6.47
2023-05-06T22:24:00.404Z,6.15
2023-05-06T22:26:32.840Z,5.75
2023-05-06T22:28:59.967Z,6.38
2023-05-06T22:31:27.108Z,6.75
2023-05-06T22:33:57.481Z,6.07
2023-05-06T22:36:27.929Z,6.88
2023-05-06T22:38:55.728Z,6.68
2023-05-06T22:41:22.726Z,6.78
2023-05-06T22:43:49.758Z,6.68
2023-05-06T22:46:17.046Z,6.25
2023-05-06T22:48:47.078Z,6.22
2023-05-06T22:51:17.522Z,6.13
2023-05-06T22:53:48.098Z,5.93
2023-05-06T22:56:15.235Z,5.88
2023-05-06T22:58:42.218Z,6.47
2023-05-06T23:01:09.350Z,5.97
2023-05-06T23:03:36.689Z,5.60
2023-05-06T23:06:05.996Z,6.65
2023-05-06T23:08:36.069Z,5.85
2023-05-06T23:11:03.124Z,5.70
2023-05-06T23:13:36.214Z,6.28
2023-05-06T23:16:03.837Z,6.55
2023-05-06T23:18:30.936Z,7.43
2023-05-06T23:20:57.972Z,6.85
2023-05-06T23:23:25.023Z,6.97
2023-05-06T23:25:53.305Z,7.22
2023-05-06T23:28:21.093Z,6.65
2023-05-06T23:30:48.158Z,6.90
2023-05-06T23:33:15.280Z,6.63
2023-05-06T23:35:42.258Z,6.68
2023-05-06T23:38:09.262Z,6.38
2023-05-06T23:40:36.216Z,6.15
2023-05-06T23:43:03.227Z,5.68
2023-05-06T23:45:30.472Z,6.07
2023-05-06T23:47:57.484Z,5.70
2023-05-06T23:50:24.517Z,5.90
2023-05-06T23:52:51.476Z,4.97
2023-05-06T23:55:19.915Z,5.80
2023-05-06T23:57:46.953Z,5.53
